sensor_id;sensor_type;location;lat;lon;timestamp;P1;durP1;ratioP1;P2;durP2;ratioP2
17913;SDS011;9082;50.742;8.238;2022-08-01T00:02:11;5.63;;;4.40;;
17913;SDS011;9082;50.742;8.238;2022-08-01T00:04:38;7.30;;;4.27;;
17913;SDS011;9082;50.742;8.238;2022-08-01T00:07:05;6.77;;;4.47;;
17913;SDS011;9082;50.742;8.238;2022-08-01T00:09:32;10.67;;;5.03;;
17913;SDS011;9082;50.742;8.238;2022-08-01T00:11:59;8.00;;;4.77;;
17913;SDS011;9082;50.742;8.238;2022-08-01T00:14:28;6.73;;;4.90;;
17913;SDS011;9082;50.742;8.238;2022-08-01T00:16:55;7.33;;;4.50;;
17913;SDS011;9082;50.742;8.238;2022-08-01T00:19:22;7.40;;;4.80;;
17913;SDS011;9082;50.742;8.238;2022-08-01T00:21:49;7.97;;;4.27;;
17913;SDS011;9082;50.742;8.238;2022-08-01T00:24:17;6.50;;;4.40;;
17913;SDS011;9082;50.742;8.238;2022-08-01T00:26:44;6.83;;;4.70;;
17913;SDS011;9082;50.742;8.238;2022-08-01T00:29:11;9.67;;;4.67;;
17913;SDS011;9082;50.742;8.238;2022-08-01T00:31:39;7.60;;;4.33;;
17913;SDS011;9082;50.742;8.238;2022-08-01T00:34:06;9.70;;;4.97;;
17913;SDS011;9082;50.742;8.238;2022-08-01T00:36:34;8.30;;;4.57;;
17913;SDS011;9082;50.742;8.238;2022-08-01T00:39:01;7.20;;;4.37;;
17913;SDS011;9082;50.742;8.238;2022-08-01T00:41:28;9.37;;;4.67;;
17913;SDS011;9082;50.742;8.238;2022-08-01T00:43:55;5.93;;;4.77;;
17913;SDS011;9082;50.742;8.238;2022-08-01T00:46:22;7.57;;;5.07;;
17913;SDS011;9082;50.742;8.238;2022-08-01T00:48:51;7.67;;;5.20;;
17913;SDS011;9082;50.742;8.238;2022-08-01T00:51:18;6.27;;;4.87;;
17913;SDS011;9082;50.742;8.238;2022-08-01T00:53:45;15.07;;;5.73;;
17913;SDS011;9082;50.742;8.238;2022-08-01T00:56:13;8.80;;;5.20;;
17913;SDS011;9082;50.742;8.238;2022-08-01T00:58:40;12.93;;;5.50;;
17913;SDS011;9082;50.742;8.238;2022-08-01T01:01:07;7.13;;;5.30;;
17913;SDS011;9082;50.742;8.238;2022-08-01T01:03:34;8.47;;;5.37;;
17913;SDS011;9082;50.742;8.238;2022-08-01T01:06:09;9.53;;;5.30;;
17913;SDS011;9082;50.742;8.238;2022-08-01T01:08:41;12.73;;;5.63;;
17913;SDS011;9082;50.742;8.238;2022-08-01T01:11:09;8.87;;;5.00;;
17913;SDS011;9082;50.742;8.238;2022-08-01T01:13:37;8.77;;;5.00;;
17913;SDS011;9082;50.742;8.238;2022-08-01T01:16:06;7.47;;;4.40;;
17913;SDS011;9082;50.742;8.238;2022-08-01T01:18:37;5.70;;;4.37;;
17913;SDS011;9082;50.742;8.238;2022-08-01T01:21:11;10.40;;;4.57;;
17913;SDS011;9082;50.742;8.238;2022-08-01T01:23:46;6.30;;;3.70;;
17913;SDS011;9082;50.742;8.238;2022-08-01T01:26:21;8.73;;;3.80;;
17913;SDS011;9082;50.742;8.238;2022-08-01T01:31:41;6.37;;;3.80;;
17913;SDS011;9082;50.742;8.238;2022-08-01T01:34:11;6.63;;;3.77;;
17913;SDS011;9082;50.742;8.238;2022-08-01T01:36:39;9.00;;;3.80;;
17913;SDS011;9082;50.742;8.238;2022-08-01T01:39:06;6.87;;;4.37;;
17913;SDS011;9082;50.742;8.238;2022-08-01T01:41:34;12.37;;;3.40;;
17913;SDS011;9082;50.742;8.238;2022-08-01T01:44:03;5.00;;;3.70;;
17913;SDS011;9082;50.742;8.238;2022-08-01T01:46:31;5.13;;;3.30;;
17913;SDS011;9082;50.742;8.238;2022-08-01T01:49:00;7.33;;;3.43;;
17913;SDS011;9082;50.742;8.238;2022-08-01T01:51:28;6.00;;;3.60;;
17913;SDS011;9082;50.742;8.238;2022-08-01T01:53:56;9.40;;;4.00;;
17913;SDS011;9082;50.742;8.238;2022-08-01T01:56:24;5.07;;;3.47;;
17913;SDS011;9082;50.742;8.238;2022-08-01T01:58:53;6.93;;;3.70;;
17913;SDS011;9082;50.742;8.238;2022-08-01T02:01:21;7.13;;;4.00;;
17913;SDS011;9082;50.742;8.238;2022-08-01T02:03:50;8.77;;;3.87;;
17913;SDS011;9082;50.742;8.238;2022-08-01T02:06:20;6.23;;;3.70;;
17913;SDS011;9082;50.742;8.238;2022-08-01T02:08:47;6.37;;;4.03;;
17913;SDS011;9082;50.742;8.238;2022-08-01T02:11:15;7.87;;;4.10;;
17913;SDS011;9082;50.742;8.238;2022-08-01T02:13:46;5.90;;;4.20;;
17913;SDS011;9082;50.742;8.238;2022-08-01T02:16:15;9.57;;;5.40;;
17913;SDS011;9082;50.742;8.238;2022-08-01T02:18:43;8.93;;;4.73;;
17913;SDS011;9082;50.742;8.238;2022-08-01T02:21:12;9.43;;;5.40;;
17913;SDS011;9082;50.742;8.238;2022-08-01T02:23:42;8.73;;;4.77;;
17913;SDS011;9082;50.742;8.238;2022-08-01T02:26:09;10.57;;;4.23;;
17913;SDS011;9082;50.742;8.238;2022-08-01T02:28:38;7.40;;;4.20;;
17913;SDS011;9082;50.742;8.238;2022-08-01T02:31:10;6.87;;;4.30;;
17913;SDS011;9082;50.742;8.238;2022-08-01T02:33:40;7.03;;;3.73;;
17913;SDS011;9082;50.742;8.238;2022-08-01T02:36:08;6.47;;;3.63;;
17913;SDS011;9082;50.742;8.238;2022-08-01T02:38:39;6.97;;;4.17;;
17913;SDS011;9082;50.742;8.238;2022-08-01T02:41:09;5.67;;;3.87;;
17913;SDS011;9082;50.742;8.238;2022-08-01T02:43:38;7.13;;;4.20;;
17913;SDS011;9082;50.742;8.238;2022-08-01T02:46:07;5.77;;;4.03;;
17913;SDS011;9082;50.742;8.238;2022-08-01T02:48:35;10.83;;;4.00;;
17913;SDS011;9082;50.742;8.238;2022-08-01T02:51:03;6.00;;;3.93;;
17913;SDS011;9082;50.742;8.238;2022-08-01T02:53:32;7.77;;;4.33;;
17913;SDS011;9082;50.742;8.238;2022-08-01T02:56:02;6.47;;;4.17;;
17913;SDS011;9082;50.742;8.238;2022-08-01T02:58:31;9.50;;;4.43;;
17913;SDS011;9082;50.742;8.238;2022-08-01T03:00:59;6.53;;;4.70;;
17913;SDS011;9082;50.742;8.238;2022-08-01T03:03:26;6.53;;;4.90;;
17913;SDS011;9082;50.742;8.238;2022-08-01T03:05:54;6.43;;;4.33;;
17913;SDS011;9082;50.742;8.238;2022-08-01T03:08:21;7.33;;;5.13;;
17913;SDS011;9082;50.742;8.238;2022-08-01T03:10:49;7.13;;;4.93;;
17913;SDS011;9082;50.742;8.238;2022-08-01T03:13:17;7.97;;;4.90;;
17913;SDS011;9082;50.742;8.238;2022-08-01T03:15:46;9.20;;;5.23;;
17913;SDS011;9082;50.742;8.238;2022-08-01T03:18:13;10.13;;;5.87;;
17913;SDS011;9082;50.742;8.238;2022-08-01T03:20:41;11.67;;;6.40;;
17913;SDS011;9082;50.742;8.238;2022-08-01T03:23:09;9.70;;;5.87;;
17913;SDS011;9082;50.742;8.238;2022-08-01T03:25:38;10.17;;;6.03;;
17913;SDS011;9082;50.742;8.238;2022-08-01T03:28:06;12.07;;;6.60;;
17913;SDS011;9082;50.742;8.238;2022-08-01T03:30:33;12.17;;;6.20;;
17913;SDS011;9082;50.742;8.238;2022-08-01T03:33:03;10.57;;;7.53;;
17913;SDS011;9082;50.742;8.238;2022-08-01T03:35:30;9.40;;;6.80;;
17913;SDS011;9082;50.742;8.238;2022-08-01T03:37:59;11.77;;;7.23;;
17913;SDS011;9082;50.742;8.238;2022-08-01T03:40:28;16.87;;;8.33;;
17913;SDS011;9082;50.742;8.238;2022-08-01T03:43:00;14.63;;;8.23;;
17913;SDS011;9082;50.742;8.238;2022-08-01T03:45:30;15.83;;;9.90;;
17913;SDS011;9082;50.742;8.238;2022-08-01T03:47:59;16.33;;;9.93;;
17913;SDS011;9082;50.742;8.238;2022-08-01T03:50:28;16.23;;;9.60;;
17913;SDS011;9082;50.742;8.238;2022-08-01T03:52:57;15.13;;;9.30;;
17913;SDS011;9082;50.742;8.238;2022-08-01T03:55:24;15.27;;;9.63;;
17913;SDS011;9082;50.742;8.238;2022-08-01T03:57:52;16.57;;;9.03;;
17913;SDS011;9082;50.742;8.238;2022-08-01T04:00:19;14.70;;;9.00;;
17913;SDS011;9082;50.742;8.238;2022-08-01T04:02:47;16.53;;;9.20;;
17913;SDS011;9082;50.742;8.238;2022-08-01T04:05:14;15.70;;;9.00;;
17913;SDS011;9082;50.742;8.238;2022-08-01T04:07:46;15.53;;;9.00;;
17913;SDS011;9082;50.742;8.238;2022-08-01T04:10:15;13.97;;;8.77;;
17913;SDS011;9082;50.742;8.238;2022-08-01T04:12:42;13.77;;;8.40;;
17913;SDS011;9082;50.742;8.238;2022-08-01T04:15:10;20.20;;;9.17;;
17913;SDS011;9082;50.742;8.238;2022-08-01T04:17:37;14.10;;;8.60;;
17913;SDS011;9082;50.742;8.238;2022-08-01T04:20:04;14.47;;;8.60;;
17913;SDS011;9082;50.742;8.238;2022-08-01T04:22:32;14.27;;;8.37;;
17913;SDS011;9082;50.742;8.238;2022-08-01T04:25:03;13.97;;;8.50;;
17913;SDS011;9082;50.742;8.238;2022-08-01T04:27:37;14.43;;;9.40;;
17913;SDS011;9082;50.742;8.238;2022-08-01T04:30:05;16.17;;;9.37;;
17913;SDS011;9082;50.742;8.238;2022-08-01T04:32:34;15.17;;;9.60;;
17913;SDS011;9082;50.742;8.238;2022-08-01T04:35:03;17.63;;;9.40;;
17913;SDS011;9082;50.742;8.238;2022-08-01T04:37:31;16.80;;;10.13;;
17913;SDS011;9082;50.742;8.238;2022-08-01T04:40:03;15.07;;;10.30;;
17913;SDS011;9082;50.742;8.238;2022-08-01T04:42:31;18.60;;;10.20;;
17913;SDS011;9082;50.742;8.238;2022-08-01T04:44:58;16.70;;;10.30;;
17913;SDS011;9082;50.742;8.238;2022-08-01T04:47:26;20.43;;;10.67;;
17913;SDS011;9082;50.742;8.238;2022-08-01T04:49:53;12.83;;;9.90;;
17913;SDS011;9082;50.742;8.238;2022-08-01T04:52:21;15.83;;;9.60;;
17913;SDS011;9082;50.742;8.238;2022-08-01T04:54:49;17.87;;;10.70;;
17913;SDS011;9082;50.742;8.238;2022-08-01T04:57:17;16.53;;;9.50;;
17913;SDS011;9082;50.742;8.238;2022-08-01T04:59:45;15.00;;;9.27;;
17913;SDS011;9082;50.742;8.238;2022-08-01T05:02:14;16.70;;;9.67;;
17913;SDS011;9082;50.742;8.238;2022-08-01T05:04:42;15.77;;;9.10;;
17913;SDS011;9082;50.742;8.238;2022-08-01T05:07:10;17.60;;;8.97;;
17913;SDS011;9082;50.742;8.238;2022-08-01T05:09:51;15.97;;;9.07;;
17913;SDS011;9082;50.742;8.238;2022-08-01T05:12:20;15.63;;;9.17;;
17913;SDS011;9082;50.742;8.238;2022-08-01T05:14:47;20.30;;;9.30;;
17913;SDS011;9082;50.742;8.238;2022-08-01T05:17:14;15.47;;;9.00;;
17913;SDS011;9082;50.742;8.238;2022-08-01T05:19:41;16.13;;;8.93;;
17913;SDS011;9082;50.742;8.238;2022-08-01T05:22:09;18.37;;;9.50;;
17913;SDS011;9082;50.742;8.238;2022-08-01T05:24:37;13.13;;;9.30;;
17913;SDS011;9082;50.742;8.238;2022-08-01T05:27:04;15.20;;;9.47;;
17913;SDS011;9082;50.742;8.238;2022-08-01T05:29:34;13.63;;;8.80;;
17913;SDS011;9082;50.742;8.238;2022-08-01T05:32:01;13.37;;;8.63;;
17913;SDS011;9082;50.742;8.238;2022-08-01T05:34:28;18.17;;;9.13;;
17913;SDS011;9082;50.742;8.238;2022-08-01T05:36:56;17.80;;;9.27;;
17913;SDS011;9082;50.742;8.238;2022-08-01T05:39:23;17.30;;;9.50;;
17913;SDS011;9082;50.742;8.238;2022-08-01T05:41:50;20.67;;;8.80;;
17913;SDS011;9082;50.742;8.238;2022-08-01T05:44:17;17.53;;;9.37;;
17913;SDS011;9082;50.742;8.238;2022-08-01T05:46:45;14.50;;;9.37;;
17913;SDS011;9082;50.742;8.238;2022-08-01T05:49:13;15.03;;;9.93;;
17913;SDS011;9082;50.742;8.238;2022-08-01T05:51:40;14.80;;;9.30;;
17913;SDS011;9082;50.742;8.238;2022-08-01T05:54:07;20.63;;;9.97;;
17913;SDS011;9082;50.742;8.238;2022-08-01T05:56:34;15.47;;;9.83;;
17913;SDS011;9082;50.742;8.238;2022-08-01T05:59:01;18.53;;;9.50;;
17913;SDS011;9082;50.742;8.238;2022-08-01T06:01:29;15.60;;;9.47;;
17913;SDS011;9082;50.742;8.238;2022-08-01T06:03:57;18.97;;;9.83;;
17913;SDS011;9082;50.742;8.238;2022-08-01T06:06:25;14.97;;;9.43;;
17913;SDS011;9082;50.742;8.238;2022-08-01T06:08:52;20.30;;;9.47;;
17913;SDS011;9082;50.742;8.238;2022-08-01T06:11:19;15.97;;;9.80;;
17913;SDS011;9082;50.742;8.238;2022-08-01T06:13:46;16.40;;;9.43;;
17913;SDS011;9082;50.742;8.238;2022-08-01T06:16:13;16.53;;;9.67;;
17913;SDS011;9082;50.742;8.238;2022-08-01T06:18:41;14.50;;;8.57;;
17913;SDS011;9082;50.742;8.238;2022-08-01T06:21:09;15.77;;;9.23;;
17913;SDS011;9082;50.742;8.238;2022-08-01T06:23:36;13.67;;;8.47;;
17913;SDS011;9082;50.742;8.238;2022-08-01T06:26:03;15.30;;;9.33;;
17913;SDS011;9082;50.742;8.238;2022-08-01T06:28:31;15.90;;;9.10;;
17913;SDS011;9082;50.742;8.238;2022-08-01T06:30:58;14.20;;;7.90;;
17913;SDS011;9082;50.742;8.238;2022-08-01T06:33:25;15.60;;;8.43;;
17913;SDS011;9082;50.742;8.238;2022-08-01T06:35:52;14.60;;;8.63;;
17913;SDS011;9082;50.742;8.238;2022-08-01T06:38:21;11.73;;;7.40;;
17913;SDS011;9082;50.742;8.238;2022-08-01T06:40:49;12.83;;;7.97;;
17913;SDS011;9082;50.742;8.238;2022-08-01T06:43:16;11.77;;;8.13;;
17913;SDS011;9082;50.742;8.238;2022-08-01T06:45:44;13.57;;;8.03;;
17913;SDS011;9082;50.742;8.238;2022-08-01T06:48:11;11.83;;;8.17;;
17913;SDS011;9082;50.742;8.238;2022-08-01T06:50:38;14.63;;;8.10;;
17913;SDS011;9082;50.742;8.238;2022-08-01T06:53:05;13.10;;;7.83;;
17913;SDS011;9082;50.742;8.238;2022-08-01T06:55:34;11.67;;;8.00;;
17913;SDS011;9082;50.742;8.238;2022-08-01T06:58:01;15.57;;;8.00;;
17913;SDS011;9082;50.742;8.238;2022-08-01T07:00:28;13.33;;;7.90;;
17913;SDS011;9082;50.742;8.238;2022-08-01T07:02:56;10.73;;;7.40;;
17913;SDS011;9082;50.742;8.238;2022-08-01T07:05:24;13.83;;;7.80;;
17913;SDS011;9082;50.742;8.238;2022-08-01T07:07:51;13.13;;;8.10;;
17913;SDS011;9082;50.742;8.238;2022-08-01T07:10:18;11.07;;;7.53;;
17913;SDS011;9082;50.742;8.238;2022-08-01T07:12:47;10.87;;;7.07;;
17913;SDS011;9082;50.742;8.238;2022-08-01T07:15:14;11.17;;;7.33;;
17913;SDS011;9082;50.742;8.238;2022-08-01T07:17:41;9.70;;;6.93;;
17913;SDS011;9082;50.742;8.238;2022-08-01T07:20:10;17.20;;;7.90;;
17913;SDS011;9082;50.742;8.238;2022-08-01T07:22:37;12.97;;;8.07;;
17913;SDS011;9082;50.742;8.238;2022-08-01T07:25:05;15.23;;;7.67;;
17913;SDS011;9082;50.742;8.238;2022-08-01T07:27:32;10.67;;;7.50;;
17913;SDS011;9082;50.742;8.238;2022-08-01T07:30:01;10.30;;;7.37;;
17913;SDS011;9082;50.742;8.238;2022-08-01T07:32:29;11.17;;;7.20;;
17913;SDS011;9082;50.742;8.238;2022-08-01T07:34:56;9.97;;;7.03;;
17913;SDS011;9082;50.742;8.238;2022-08-01T07:37:23;10.30;;;7.27;;
17913;SDS011;9082;50.742;8.238;2022-08-01T07:39:51;12.83;;;7.30;;
17913;SDS011;9082;50.742;8.238;2022-08-01T07:42:18;9.73;;;7.00;;
17913;SDS011;9082;50.742;8.238;2022-08-01T07:44:45;17.00;;;7.17;;
17913;SDS011;9082;50.742;8.238;2022-08-01T07:47:13;11.50;;;7.37;;
17913;SDS011;9082;50.742;8.238;2022-08-01T07:49:41;10.03;;;7.13;;
17913;SDS011;9082;50.742;8.238;2022-08-01T07:52:08;10.23;;;7.27;;
17913;SDS011;9082;50.742;8.238;2022-08-01T07:54:35;8.40;;;6.20;;
17913;SDS011;9082;50.742;8.238;2022-08-01T07:57:02;12.47;;;7.00;;
17913;SDS011;9082;50.742;8.238;2022-08-01T07:59:30;8.07;;;5.93;;
17913;SDS011;9082;50.742;8.238;2022-08-01T08:01:57;9.40;;;6.10;;
17913;SDS011;9082;50.742;8.238;2022-08-01T08:04:26;7.70;;;5.80;;
17913;SDS011;9082;50.742;8.238;2022-08-01T08:06:53;7.27;;;5.00;;
17913;SDS011;9082;50.742;8.238;2022-08-01T08:09:20;8.63;;;5.63;;
17913;SDS011;9082;50.742;8.238;2022-08-01T08:11:47;7.73;;;5.47;;
17913;SDS011;9082;50.742;8.238;2022-08-01T08:14:15;6.93;;;5.33;;
17913;SDS011;9082;50.742;8.238;2022-08-01T08:16:42;8.93;;;5.60;;
17913;SDS011;9082;50.742;8.238;2022-08-01T08:19:09;7.00;;;5.50;;
17913;SDS011;9082;50.742;8.238;2022-08-01T08:21:37;7.70;;;5.43;;
17913;SDS011;9082;50.742;8.238;2022-08-01T08:24:05;7.17;;;4.70;;
17913;SDS011;9082;50.742;8.238;2022-08-01T08:26:49;7.63;;;4.70;;
17913;SDS011;9082;50.742;8.238;2022-08-01T08:29:16;6.57;;;4.27;;
17913;SDS011;9082;50.742;8.238;2022-08-01T08:31:43;6.40;;;4.30;;
17913;SDS011;9082;50.742;8.238;2022-08-01T08:34:11;7.43;;;4.17;;
17913;SDS011;9082;50.742;8.238;2022-08-01T08:36:39;7.47;;;4.50;;
17913;SDS011;9082;50.742;8.238;2022-08-01T08:39:07;7.40;;;4.30;;
17913;SDS011;9082;50.742;8.238;2022-08-01T08:41:34;6.17;;;3.93;;
17913;SDS011;9082;50.742;8.238;2022-08-01T08:44:02;6.57;;;4.27;;
17913;SDS011;9082;50.742;8.238;2022-08-01T08:46:29;10.30;;;4.07;;
17913;SDS011;9082;50.742;8.238;2022-08-01T08:48:59;6.60;;;4.37;;
17913;SDS011;9082;50.742;8.238;2022-08-01T08:51:26;6.13;;;3.80;;
17913;SDS011;9082;50.742;8.238;2022-08-01T08:53:56;7.30;;;3.97;;
17913;SDS011;9082;50.742;8.238;2022-08-01T08:56:24;5.03;;;3.80;;
17913;SDS011;9082;50.742;8.238;2022-08-01T08:58:51;7.03;;;4.27;;
17913;SDS011;9082;50.742;8.238;2022-08-01T09:01:18;7.67;;;4.57;;
17913;SDS011;9082;50.742;8.238;2022-08-01T09:03:46;5.33;;;4.37;;
17913;SDS011;9082;50.742;8.238;2022-08-01T09:06:16;8.10;;;4.10;;
17913;SDS011;9082;50.742;8.238;2022-08-01T09:08:58;7.63;;;4.27;;
17913;SDS011;9082;50.742;8.238;2022-08-01T09:11:25;6.73;;;4.43;;
17913;SDS011;9082;50.742;8.238;2022-08-01T09:14:06;5.73;;;4.17;;
17913;SDS011;9082;50.742;8.238;2022-08-01T09:16:34;7.43;;;4.27;;
17913;SDS011;9082;50.742;8.238;2022-08-01T09:19:06;6.80;;;4.10;;
17913;SDS011;9082;50.742;8.238;2022-08-01T09:21:33;5.37;;;3.90;;
17913;SDS011;9082;50.742;8.238;2022-08-01T09:24:02;3.87;;;3.40;;
17913;SDS011;9082;50.742;8.238;2022-08-01T09:26:33;5.00;;;3.80;;
17913;SDS011;9082;50.742;8.238;2022-08-01T09:29:03;6.73;;;3.87;;
17913;SDS011;9082;50.742;8.238;2022-08-01T09:31:38;6.57;;;3.73;;
17913;SDS011;9082;50.742;8.238;2022-08-01T09:34:06;7.20;;;3.53;;
17913;SDS011;9082;50.742;8.238;2022-08-01T09:36:44;6.27;;;3.43;;
17913;SDS011;9082;50.742;8.238;2022-08-01T09:39:15;8.03;;;4.20;;
17913;SDS011;9082;50.742;8.238;2022-08-01T09:41:42;6.57;;;4.20;;
17913;SDS011;9082;50.742;8.238;2022-08-01T09:44:09;5.83;;;4.00;;
17913;SDS011;9082;50.742;8.238;2022-08-01T09:46:43;7.13;;;4.30;;
17913;SDS011;9082;50.742;8.238;2022-08-01T09:49:15;7.03;;;3.90;;
17913;SDS011;9082;50.742;8.238;2022-08-01T09:51:53;5.80;;;3.83;;
17913;SDS011;9082;50.742;8.238;2022-08-01T09:54:28;7.53;;;3.77;;
17913;SDS011;9082;50.742;8.238;2022-08-01T09:57:06;6.77;;;3.90;;
17913;SDS011;9082;50.742;8.238;2022-08-01T09:59:34;5.97;;;3.30;;
17913;SDS011;9082;50.742;8.238;2022-08-01T10:02:02;5.30;;;3.73;;
17913;SDS011;9082;50.742;8.238;2022-08-01T10:04:30;4.43;;;3.43;;
17913;SDS011;9082;50.742;8.238;2022-08-01T10:07:03;7.20;;;3.30;;
17913;SDS011;9082;50.742;8.238;2022-08-01T10:09:32;6.97;;;3.10;;
17913;SDS011;9082;50.742;8.238;2022-08-01T10:11:59;8.37;;;3.30;;
17913;SDS011;9082;50.742;8.238;2022-08-01T10:14:28;9.23;;;3.63;;
17913;SDS011;9082;50.742;8.238;2022-08-01T10:16:56;3.97;;;3.13;;
17913;SDS011;9082;50.742;8.238;2022-08-01T10:19:24;6.83;;;3.33;;
17913;SDS011;9082;50.742;8.238;2022-08-01T10:21:52;4.93;;;3.50;;
17913;SDS011;9082;50.742;8.238;2022-08-01T10:24:19;6.10;;;3.47;;
17913;SDS011;9082;50.742;8.238;2022-08-01T10:26:49;7.73;;;3.40;;
17913;SDS011;9082;50.742;8.238;2022-08-01T10:29:19;3.97;;;3.20;;
17913;SDS011;9082;50.742;8.238;2022-08-01T10:31:47;4.97;;;3.30;;
17913;SDS011;9082;50.742;8.238;2022-08-01T10:34:14;5.93;;;3.73;;
17913;SDS011;9082;50.742;8.238;2022-08-01T10:36:43;5.03;;;3.60;;
17913;SDS011;9082;50.742;8.238;2022-08-01T10:39:11;6.07;;;3.27;;
17913;SDS011;9082;50.742;8.238;2022-08-01T10:41:38;4.63;;;3.30;;
17913;SDS011;9082;50.742;8.238;2022-08-01T10:44:07;4.40;;;3.20;;
17913;SDS011;9082;50.742;8.238;2022-08-01T10:46:35;9.07;;;3.23;;
17913;SDS011;9082;50.742;8.238;2022-08-01T10:49:04;4.90;;;2.90;;
17913;SDS011;9082;50.742;8.238;2022-08-01T10:51:34;4.03;;;2.83;;
17913;SDS011;9082;50.742;8.238;2022-08-01T10:54:04;3.77;;;2.90;;
17913;SDS011;9082;50.742;8.238;2022-08-01T10:56:38;3.60;;;3.00;;
17913;SDS011;9082;50.742;8.238;2022-08-01T10:59:06;3.97;;;3.20;;
17913;SDS011;9082;50.742;8.238;2022-08-01T11:01:34;3.60;;;2.87;;
17913;SDS011;9082;50.742;8.238;2022-08-01T11:04:03;8.67;;;2.97;;
17913;SDS011;9082;50.742;8.238;2022-08-01T11:06:39;5.13;;;3.43;;
17913;SDS011;9082;50.742;8.238;2022-08-01T11:09:15;3.87;;;3.00;;
17913;SDS011;9082;50.742;8.238;2022-08-01T11:11:59;4.43;;;3.23;;
17913;SDS011;9082;50.742;8.238;2022-08-01T11:14:33;4.70;;;3.20;;
17913;SDS011;9082;50.742;8.238;2022-08-01T11:20:07;6.73;;;3.50;;
17913;SDS011;9082;50.742;8.238;2022-08-01T11:25:17;4.77;;;3.90;;
17913;SDS011;9082;50.742;8.238;2022-08-01T11:27:44;5.47;;;3.90;;
17913;SDS011;9082;50.742;8.238;2022-08-01T11:30:24;7.57;;;3.53;;
17913;SDS011;9082;50.742;8.238;2022-08-01T11:32:52;5.70;;;3.50;;
17913;SDS011;9082;50.742;8.238;2022-08-01T11:35:21;4.53;;;3.27;;
17913;SDS011;9082;50.742;8.238;2022-08-01T11:37:50;4.97;;;3.50;;
17913;SDS011;9082;50.742;8.238;2022-08-01T11:40:20;5.57;;;3.20;;
17913;SDS011;9082;50.742;8.238;2022-08-01T11:42:48;6.87;;;3.27;;
17913;SDS011;9082;50.742;8.238;2022-08-01T11:45:15;3.43;;;3.13;;
17913;SDS011;9082;50.742;8.238;2022-08-01T11:47:43;9.57;;;3.27;;
17913;SDS011;9082;50.742;8.238;2022-08-01T11:52:57;3.60;;;2.90;;
17913;SDS011;9082;50.742;8.238;2022-08-01T11:55:25;3.80;;;2.57;;
17913;SDS011;9082;50.742;8.238;2022-08-01T11:57:58;3.37;;;2.70;;
17913;SDS011;9082;50.742;8.238;2022-08-01T12:00:26;4.93;;;2.53;;
17913;SDS011;9082;50.742;8.238;2022-08-01T12:02:56;3.37;;;2.20;;
17913;SDS011;9082;50.742;8.238;2022-08-01T12:05:24;3.13;;;2.43;;
17913;SDS011;9082;50.742;8.238;2022-08-01T12:07:52;4.07;;;2.30;;
17913;SDS011;9082;50.742;8.238;2022-08-01T12:10:22;3.73;;;2.33;;
17913;SDS011;9082;50.742;8.238;2022-08-01T12:12:49;2.90;;;2.50;;
17913;SDS011;9082;50.742;8.238;2022-08-01T12:15:17;2.87;;;2.13;;
17913;SDS011;9082;50.742;8.238;2022-08-01T12:17:46;3.27;;;2.20;;
17913;SDS011;9082;50.742;8.238;2022-08-01T12:20:14;3.43;;;2.20;;
17913;SDS011;9082;50.742;8.238;2022-08-01T12:22:42;4.87;;;2.37;;
17913;SDS011;9082;50.742;8.238;2022-08-01T12:25:10;4.70;;;2.90;;
17913;SDS011;9082;50.742;8.238;2022-08-01T12:27:40;2.37;;;2.10;;
17913;SDS011;9082;50.742;8.238;2022-08-01T12:30:07;5.03;;;2.30;;
17913;SDS011;9082;50.742;8.238;2022-08-01T12:32:36;4.93;;;2.60;;
17913;SDS011;9082;50.742;8.238;2022-08-01T12:35:04;3.00;;;2.30;;
17913;SDS011;9082;50.742;8.238;2022-08-01T12:37:32;3.60;;;2.23;;
17913;SDS011;9082;50.742;8.238;2022-08-01T12:39:59;3.13;;;2.40;;
17913;SDS011;9082;50.742;8.238;2022-08-01T12:42:26;2.47;;;1.90;;
17913;SDS011;9082;50.742;8.238;2022-08-01T12:44:55;3.30;;;2.50;;
17913;SDS011;9082;50.742;8.238;2022-08-01T12:47:22;4.03;;;2.40;;
17913;SDS011;9082;50.742;8.238;2022-08-01T12:49:50;5.20;;;2.10;;
17913;SDS011;9082;50.742;8.238;2022-08-01T12:52:17;3.27;;;2.37;;
17913;SDS011;9082;50.742;8.238;2022-08-01T12:54:59;3.73;;;2.17;;
17913;SDS011;9082;50.742;8.238;2022-08-01T12:57:27;3.27;;;2.17;;
17913;SDS011;9082;50.742;8.238;2022-08-01T13:00:05;2.43;;;1.80;;
17913;SDS011;9082;50.742;8.238;2022-08-01T13:02:32;4.00;;;2.40;;
17913;SDS011;9082;50.742;8.238;2022-08-01T13:05:00;3.93;;;2.07;;
17913;SDS011;9082;50.742;8.238;2022-08-01T13:07:34;4.43;;;2.13;;
17913;SDS011;9082;50.742;8.238;2022-08-01T13:10:01;4.47;;;2.10;;
17913;SDS011;9082;50.742;8.238;2022-08-01T13:12:29;3.57;;;2.40;;
17913;SDS011;9082;50.742;8.238;2022-08-01T13:14:56;3.07;;;1.97;;
17913;SDS011;9082;50.742;8.238;2022-08-01T13:17:31;2.63;;;2.20;;
17913;SDS011;9082;50.742;8.238;2022-08-01T13:20:00;3.10;;;1.93;;
17913;SDS011;9082;50.742;8.238;2022-08-01T13:22:34;2.63;;;2.10;;
17913;SDS011;9082;50.742;8.238;2022-08-01T13:25:11;2.40;;;2.10;;
17913;SDS011;9082;50.742;8.238;2022-08-01T13:27:38;5.83;;;1.93;;
17913;SDS011;9082;50.742;8.238;2022-08-01T13:30:12;2.33;;;1.83;;
17913;SDS011;9082;50.742;8.238;2022-08-01T13:32:41;1.87;;;1.60;;
17913;SDS011;9082;50.742;8.238;2022-08-01T13:35:10;3.60;;;2.17;;
17913;SDS011;9082;50.742;8.238;2022-08-01T13:37:38;2.10;;;1.90;;
17913;SDS011;9082;50.742;8.238;2022-08-01T13:40:06;2.30;;;2.00;;
17913;SDS011;9082;50.742;8.238;2022-08-01T13:42:33;1.90;;;1.73;;
17913;SDS011;9082;50.742;8.238;2022-08-01T13:45:01;2.83;;;2.10;;
17913;SDS011;9082;50.742;8.238;2022-08-01T13:47:28;2.27;;;1.80;;
17913;SDS011;9082;50.742;8.238;2022-08-01T13:49:56;3.47;;;1.77;;
17913;SDS011;9082;50.742;8.238;2022-08-01T13:52:25;3.87;;;1.90;;
17913;SDS011;9082;50.742;8.238;2022-08-01T13:54:52;2.40;;;2.00;;
17913;SDS011;9082;50.742;8.238;2022-08-01T13:57:19;2.50;;;2.00;;
17913;SDS011;9082;50.742;8.238;2022-08-01T13:59:46;2.67;;;2.00;;
17913;SDS011;9082;50.742;8.238;2022-08-01T14:02:14;1.93;;;1.70;;
17913;SDS011;9082;50.742;8.238;2022-08-01T14:04:41;2.27;;;1.50;;
17913;SDS011;9082;50.742;8.238;2022-08-01T14:07:09;5.10;;;1.53;;
17913;SDS011;9082;50.742;8.238;2022-08-01T14:09:37;2.23;;;1.57;;
17913;SDS011;9082;50.742;8.238;2022-08-01T14:12:04;1.43;;;1.33;;
17913;SDS011;9082;50.742;8.238;2022-08-01T14:14:32;5.47;;;1.90;;
17913;SDS011;9082;50.742;8.238;2022-08-01T14:16:59;1.90;;;1.60;;
17913;SDS011;9082;50.742;8.238;2022-08-01T14:19:26;2.97;;;1.80;;
17913;SDS011;9082;50.742;8.238;2022-08-01T14:21:53;3.13;;;2.13;;
17913;SDS011;9082;50.742;8.238;2022-08-01T14:24:23;2.93;;;1.97;;
17913;SDS011;9082;50.742;8.238;2022-08-01T14:26:51;3.83;;;1.80;;
17913;SDS011;9082;50.742;8.238;2022-08-01T14:29:18;2.70;;;1.83;;
17913;SDS011;9082;50.742;8.238;2022-08-01T14:31:45;2.40;;;2.00;;
17913;SDS011;9082;50.742;8.238;2022-08-01T14:34:12;2.20;;;2.00;;
17913;SDS011;9082;50.742;8.238;2022-08-01T14:36:40;2.13;;;1.93;;
17913;SDS011;9082;50.742;8.238;2022-08-01T14:39:07;3.27;;;2.23;;
17913;SDS011;9082;50.742;8.238;2022-08-01T14:41:36;2.40;;;2.10;;
17913;SDS011;9082;50.742;8.238;2022-08-01T14:44:03;3.50;;;2.30;;
17913;SDS011;9082;50.742;8.238;2022-08-01T14:46:31;4.57;;;2.40;;
17913;SDS011;9082;50.742;8.238;2022-08-01T14:48:58;4.00;;;2.10;;
17913;SDS011;9082;50.742;8.238;2022-08-01T14:51:25;3.17;;;2.20;;
17913;SDS011;9082;50.742;8.238;2022-08-01T14:53:52;3.97;;;1.73;;
17913;SDS011;9082;50.742;8.238;2022-08-01T14:56:19;2.80;;;1.73;;
17913;SDS011;9082;50.742;8.238;2022-08-01T14:58:48;2.80;;;1.70;;
17913;SDS011;9082;50.742;8.238;2022-08-01T15:01:15;3.60;;;2.30;;
17913;SDS011;9082;50.742;8.238;2022-08-01T15:03:42;4.10;;;2.40;;
17913;SDS011;9082;50.742;8.238;2022-08-01T15:06:10;3.27;;;2.10;;
17913;SDS011;9082;50.742;8.238;2022-08-01T15:08:38;4.03;;;1.60;;
17913;SDS011;9082;50.742;8.238;2022-08-01T15:11:05;2.23;;;1.80;;
17913;SDS011;9082;50.742;8.238;2022-08-01T15:13:33;2.60;;;1.70;;
17913;SDS011;9082;50.742;8.238;2022-08-01T15:16:02;3.33;;;1.70;;
17913;SDS011;9082;50.742;8.238;2022-08-01T15:18:29;2.10;;;1.60;;